sensor_id;sensor_type;location;lat;lon;timestamp;pressure;altitude;pressure_sealevel;temperature;humidity
84382;BME280;74572;51.834;5.820;2024-01-11T00:00:46;103318.06;;;-4.46;61.46
84382;BME280;74572;51.834;5.820;2024-01-11T00:03:13;103317.81;;;-4.47;61.66
84382;BME280;74572;51.834;5.820;2024-01-11T00:05:39;103315.81;;;-4.44;61.66
84382;BME280;74572;51.834;5.820;2024-01-11T00:08:05;103304.28;;;-4.44;61.94
84382;BME280;74572;51.834;5.820;2024-01-11T00:10:35;103307.44;;;-4.45;61.84
84382;BME280;74572;51.834;5.820;2024-01-11T00:13:00;103305.16;;;-4.49;62.01
84382;BME280;74572;51.834;5.820;2024-01-11T00:15:28;103306.97;;;-4.48;61.54
84382;BME280;74572;51.834;5.820;2024-01-11T00:17:53;103314.81;;;-4.56;61.70
84382;BME280;74572;51.834;5.820;2024-01-11T00:20:19;103311.91;;;-4.54;61.77
84382;BME280;74572;51.834;5.820;2024-01-11T00:22:46;103312.81;;;-4.53;61.65
84382;BME280;74572;51.834;5.820;2024-01-11T00:25:12;103318.66;;;-4.58;61.73
84382;BME280;74572;51.834;5.820;2024-01-11T00:27:38;103318.88;;;-4.62;61.68
84382;BME280;74572;51.834;5.820;2024-01-11T00:30:05;103315.91;;;-4.65;61.49
84382;BME280;74572;51.834;5.820;2024-01-11T00:32:32;103319.75;;;-4.62;61.94
84382;BME280;74572;51.834;5.820;2024-01-11T00:34:57;103309.13;;;-4.66;61.99
84382;BME280;74572;51.834;5.820;2024-01-11T00:37:25;103310.28;;;-4.64;62.21
84382;BME280;74572;51.834;5.820;2024-01-11T00:39:52;103318.41;;;-4.65;62.27
84382;BME280;74572;51.834;5.820;2024-01-11T00:42:19;103315.00;;;-4.66;62.30
84382;BME280;74572;51.834;5.820;2024-01-11T00:44:45;103321.31;;;-4.68;62.75
84382;BME280;74572;51.834;5.820;2024-01-11T00:47:12;103315.41;;;-4.74;62.13
84382;BME280;74572;51.834;5.820;2024-01-11T00:49:38;103314.50;;;-4.74;62.28
84382;BME280;74572;51.834;5.820;2024-01-11T00:52:04;103321.50;;;-4.72;62.77
84382;BME280;74572;51.834;5.820;2024-01-11T00:54:32;103317.44;;;-4.71;62.94
84382;BME280;74572;51.834;5.820;2024-01-11T00:56:58;103319.03;;;-4.72;62.54
84382;BME280;74572;51.834;5.820;2024-01-11T00:59:24;103321.75;;;-4.70;62.62
84382;BME280;74572;51.834;5.820;2024-01-11T01:01:49;103313.88;;;-4.68;62.79
84382;BME280;74572;51.834;5.820;2024-01-11T01:04:15;103321.78;;;-4.65;62.74
84382;BME280;74572;51.834;5.820;2024-01-11T01:06:42;103321.09;;;-4.69;62.62
84382;BME280;74572;51.834;5.820;2024-01-11T01:09:08;103320.41;;;-4.68;62.89
84382;BME280;74572;51.834;5.820;2024-01-11T01:11:35;103324.00;;;-4.72;62.81
84382;BME280;74572;51.834;5.820;2024-01-11T01:14:00;103326.19;;;-4.79;62.70
84382;BME280;74572;51.834;5.820;2024-01-11T01:16:27;103325.97;;;-4.80;63.15
84382;BME280;74572;51.834;5.820;2024-01-11T01:18:52;103324.38;;;-4.80;62.66
84382;BME280;74572;51.834;5.820;2024-01-11T01:21:17;103332.06;;;-4.84;63.29
84382;BME280;74572;51.834;5.820;2024-01-11T01:23:43;103334.53;;;-4.84;63.47
84382;BME280;74572;51.834;5.820;2024-01-11T01:26:08;103337.94;;;-4.83;63.22
84382;BME280;74572;51.834;5.820;2024-01-11T01:28:35;103335.44;;;-4.83;63.31
84382;BME280;74572;51.834;5.820;2024-01-11T01:31:01;103330.00;;;-4.87;63.80
84382;BME280;74572;51.834;5.820;2024-01-11T01:33:28;103331.34;;;-4.89;63.33
84382;BME280;74572;51.834;5.820;2024-01-11T01:35:53;103325.19;;;-4.96;63.08
84382;BME280;74572;51.834;5.820;2024-01-11T01:38:19;103328.31;;;-5.03;63.27
84382;BME280;74572;51.834;5.820;2024-01-11T01:40:45;103323.34;;;-5.03;63.74
84382;BME280;74572;51.834;5.820;2024-01-11T01:43:10;103321.53;;;-5.04;64.03
84382;BME280;74572;51.834;5.820;2024-01-11T01:45:36;103319.47;;;-5.06;63.87
84382;BME280;74572;51.834;5.820;2024-01-11T01:48:07;103341.38;;;-5.04;64.16
84382;BME280;74572;51.834;5.820;2024-01-11T01:50:32;103339.56;;;-5.05;64.29
84382;BME280;74572;51.834;5.820;2024-01-11T01:53:00;103341.56;;;-5.08;64.10
84382;BME280;74572;51.834;5.820;2024-01-11T01:55:28;103347.69;;;-5.06;64.22
84382;BME280;74572;51.834;5.820;2024-01-11T01:57:54;103343.56;;;-5.11;64.63
84382;BME280;74572;51.834;5.820;2024-01-11T02:00:21;103344.66;;;-5.14;64.28
84382;BME280;74572;51.834;5.820;2024-01-11T02:02:50;103356.59;;;-5.17;64.48
84382;BME280;74572;51.834;5.820;2024-01-11T02:05:18;103352.28;;;-5.18;64.94
84382;BME280;74572;51.834;5.820;2024-01-11T02:07:44;103347.31;;;-5.24;64.74
84382;BME280;74572;51.834;5.820;2024-01-11T02:10:12;103357.47;;;-5.23;64.86
84382;BME280;74572;51.834;5.820;2024-01-11T02:12:41;103360.13;;;-5.27;65.30
84382;BME280;74572;51.834;5.820;2024-01-11T02:15:06;103356.09;;;-5.26;64.88
84382;BME280;74572;51.834;5.820;2024-01-11T02:17:32;103355.59;;;-5.29;64.45
84382;BME280;74572;51.834;5.820;2024-01-11T02:19:58;103364.31;;;-5.37;64.89
84382;BME280;74572;51.834;5.820;2024-01-11T02:22:29;103350.75;;;-5.44;64.77
84382;BME280;74572;51.834;5.820;2024-01-11T02:24:58;103356.38;;;-5.45;64.57
84382;BME280;74572;51.834;5.820;2024-01-11T02:27:25;103359.25;;;-5.48;65.24
84382;BME280;74572;51.834;5.820;2024-01-11T02:29:50;103353.75;;;-5.57;64.95
84382;BME280;74572;51.834;5.820;2024-01-11T02:32:16;103352.66;;;-5.53;65.21
84382;BME280;74572;51.834;5.820;2024-01-11T02:34:42;103355.56;;;-5.56;65.09
84382;BME280;74572;51.834;5.820;2024-01-11T02:37:11;103358.94;;;-5.61;65.03
84382;BME280;74572;51.834;5.820;2024-01-11T02:39:37;103352.31;;;-5.66;65.04
84382;BME280;74572;51.834;5.820;2024-01-11T02:42:03;103356.63;;;-5.65;65.47
84382;BME280;74572;51.834;5.820;2024-01-11T02:44:28;103361.81;;;-5.63;65.12
84382;BME280;74572;51.834;5.820;2024-01-11T02:46:53;103364.72;;;-5.66;65.92
84382;BME280;74572;51.834;5.820;2024-01-11T02:49:19;103370.59;;;-5.65;65.24
84382;BME280;74572;51.834;5.820;2024-01-11T02:51:46;103356.81;;;-5.69;66.11
84382;BME280;74572;51.834;5.820;2024-01-11T02:54:12;103351.41;;;-5.66;65.59
84382;BME280;74572;51.834;5.820;2024-01-11T02:56:37;103364.81;;;-5.54;66.32
84382;BME280;74572;51.834;5.820;2024-01-11T02:59:03;103359.38;;;-5.58;66.36
84382;BME280;74572;51.834;5.820;2024-01-11T03:01:28;103355.31;;;-5.57;65.67
84382;BME280;74572;51.834;5.820;2024-01-11T03:03:57;103337.75;;;-5.59;65.67
84382;BME280;74572;51.834;5.820;2024-01-11T03:06:23;103342.50;;;-5.54;66.01
84382;BME280;74572;51.834;5.820;2024-01-11T03:08:49;103326.88;;;-5.65;66.21
84382;BME280;74572;51.834;5.820;2024-01-11T03:11:15;103334.56;;;-5.63;66.33
84382;BME280;74572;51.834;5.820;2024-01-11T03:13:42;103329.59;;;-5.63;66.12
84382;BME280;74572;51.834;5.820;2024-01-11T03:16:08;103333.34;;;-5.71;66.07
84382;BME280;74572;51.834;5.820;2024-01-11T03:18:33;103333.06;;;-5.78;65.97
84382;BME280;74572;51.834;5.820;2024-01-11T03:20:59;103334.53;;;-5.89;66.34
84382;BME280;74572;51.834;5.820;2024-01-11T03:23:24;103338.75;;;-5.94;66.35
84382;BME280;74572;51.834;5.820;2024-01-11T03:25:50;103343.00;;;-5.99;66.30
84382;BME280;74572;51.834;5.820;2024-01-11T03:28:16;103345.91;;;-6.01;66.51
84382;BME280;74572;51.834;5.820;2024-01-11T03:30:42;103331.63;;;-6.08;66.26
84382;BME280;74572;51.834;5.820;2024-01-11T03:33:08;103344.91;;;-6.07;66.59
84382;BME280;74572;51.834;5.820;2024-01-11T03:35:33;103348.88;;;-6.13;66.66
84382;BME280;74572;51.834;5.820;2024-01-11T03:38:02;103355.06;;;-6.06;66.80
84382;BME280;74572;51.834;5.820;2024-01-11T03:40:29;103361.59;;;-6.06;66.47
84382;BME280;74572;51.834;5.820;2024-01-11T03:42:55;103365.88;;;-6.05;66.31
84382;BME280;74572;51.834;5.820;2024-01-11T03:45:21;103377.44;;;-6.00;66.59
84382;BME280;74572;51.834;5.820;2024-01-11T03:47:49;103367.53;;;-6.00;66.79
84382;BME280;74572;51.834;5.820;2024-01-11T03:50:14;103366.22;;;-5.98;66.92
84382;BME280;74572;51.834;5.820;2024-01-11T03:52:42;103364.69;;;-5.92;67.39
84382;BME280;74572;51.834;5.820;2024-01-11T03:55:08;103367.19;;;-5.86;67.66
84382;BME280;74572;51.834;5.820;2024-01-11T03:57:34;103359.59;;;-5.82;67.28
84382;BME280;74572;51.834;5.820;2024-01-11T04:00:00;103360.91;;;-5.84;67.38
84382;BME280;74572;51.834;5.820;2024-01-11T04:02:25;103361.81;;;-5.84;67.60
84382;BME280;74572;51.834;5.820;2024-01-11T04:04:50;103361.41;;;-5.81;67.36
84382;BME280;74572;51.834;5.820;2024-01-11T04:07:16;103363.16;;;-5.86;67.47
84382;BME280;74572;51.834;5.820;2024-01-11T04:09:42;103360.66;;;-5.86;67.24
84382;BME280;74572;51.834;5.820;2024-01-11T04:12:08;103355.91;;;-5.90;67.59
84382;BME280;74572;51.834;5.820;2024-01-11T04:14:39;103351.13;;;-5.94;67.31
84382;BME280;74572;51.834;5.820;2024-01-11T04:17:06;103348.38;;;-6.01;67.42
84382;BME280;74572;51.834;5.820;2024-01-11T04:19:32;103354.41;;;-6.05;67.76
84382;BME280;74572;51.834;5.820;2024-01-11T04:21:59;103354.66;;;-6.03;67.77
84382;BME280;74572;51.834;5.820;2024-01-11T04:24:24;103371.09;;;-6.04;67.85
84382;BME280;74572;51.834;5.820;2024-01-11T04:26:50;103377.38;;;-6.06;67.63
84382;BME280;74572;51.834;5.820;2024-01-11T04:29:15;103383.41;;;-6.09;67.48
84382;BME280;74572;51.834;5.820;2024-01-11T04:31:41;103377.69;;;-6.14;68.09
84382;BME280;74572;51.834;5.820;2024-01-11T04:34:08;103386.38;;;-6.06;67.93
84382;BME280;74572;51.834;5.820;2024-01-11T04:36:38;103383.06;;;-6.01;68.24
84382;BME280;74572;51.834;5.820;2024-01-11T04:39:04;103381.06;;;-5.98;67.85
84382;BME280;74572;51.834;5.820;2024-01-11T04:41:35;103391.94;;;-5.92;68.40
84382;BME280;74572;51.834;5.820;2024-01-11T04:44:01;103382.50;;;-5.89;68.31
84382;BME280;74572;51.834;5.820;2024-01-11T04:46:26;103388.91;;;-5.80;68.92
84382;BME280;74572;51.834;5.820;2024-01-11T04:48:51;103404.72;;;-5.74;68.79
84382;BME280;74572;51.834;5.820;2024-01-11T04:51:19;103392.53;;;-5.78;69.20
84382;BME280;74572;51.834;5.820;2024-01-11T04:53:45;103415.38;;;-5.69;69.43
84382;BME280;74572;51.834;5.820;2024-01-11T04:56:14;103412.47;;;-5.67;69.42
84382;BME280;74572;51.834;5.820;2024-01-11T04:58:41;103411.09;;;-5.70;69.51
84382;BME280;74572;51.834;5.820;2024-01-11T05:01:15;103401.53;;;-5.78;69.10
84382;BME280;74572;51.834;5.820;2024-01-11T05:03:44;103406.72;;;-5.77;69.29
84382;BME280;74572;51.834;5.820;2024-01-11T05:06:21;103416.63;;;-5.77;69.65
84382;BME280;74572;51.834;5.820;2024-01-11T05:08:51;103410.09;;;-5.76;70.07
84382;BME280;74572;51.834;5.820;2024-01-11T05:11:22;103417.31;;;-5.78;69.56
84382;BME280;74572;51.834;5.820;2024-01-11T05:13:51;103407.41;;;-5.78;70.48
84382;BME280;74572;51.834;5.820;2024-01-11T05:16:23;103396.75;;;-5.82;70.66
84382;BME280;74572;51.834;5.820;2024-01-11T05:18:50;103393.78;;;-5.85;70.48
84382;BME280;74572;51.834;5.820;2024-01-11T05:21:17;103399.63;;;-5.90;70.45
84382;BME280;74572;51.834;5.820;2024-01-11T05:23:42;103402.00;;;-5.96;70.06
84382;BME280;74572;51.834;5.820;2024-01-11T05:26:09;103399.09;;;-5.99;70.59
84382;BME280;74572;51.834;5.820;2024-01-11T05:28:34;103412.53;;;-6.03;70.37
84382;BME280;74572;51.834;5.820;2024-01-11T05:31:01;103391.72;;;-6.09;70.47
84382;BME280;74572;51.834;5.820;2024-01-11T05:33:26;103386.03;;;-6.13;70.43
84382;BME280;74572;51.834;5.820;2024-01-11T05:35:52;103394.63;;;-6.11;70.31
84382;BME280;74572;51.834;5.820;2024-01-11T05:38:19;103402.91;;;-6.16;70.89
84382;BME280;74572;51.834;5.820;2024-01-11T05:40:45;103409.84;;;-6.19;70.48
84382;BME280;74572;51.834;5.820;2024-01-11T05:43:11;103406.47;;;-6.20;70.34
84382;BME280;74572;51.834;5.820;2024-01-11T05:45:37;103408.03;;;-6.20;70.49
84382;BME280;74572;51.834;5.820;2024-01-11T05:48:03;103402.47;;;-6.14;70.71
84382;BME280;74572;51.834;5.820;2024-01-11T05:50:28;103398.50;;;-6.08;70.48
84382;BME280;74572;51.834;5.820;2024-01-11T05:52:58;103399.91;;;-6.04;70.63
84382;BME280;74572;51.834;5.820;2024-01-11T05:55:23;103399.91;;;-6.04;70.68
84382;BME280;74572;51.834;5.820;2024-01-11T05:57:49;103418.50;;;-5.97;70.61
84382;BME280;74572;51.834;5.820;2024-01-11T06:00:15;103410.97;;;-6.02;70.27
84382;BME280;74572;51.834;5.820;2024-01-11T06:02:41;103409.41;;;-6.02;70.90
84382;BME280;74572;51.834;5.820;2024-01-11T06:05:10;103399.41;;;-6.07;70.61
84382;BME280;74572;51.834;5.820;2024-01-11T06:07:37;103398.09;;;-6.05;70.52
84382;BME280;74572;51.834;5.820;2024-01-11T06:10:04;103401.63;;;-6.09;70.67
84382;BME280;74572;51.834;5.820;2024-01-11T06:12:31;103414.19;;;-6.13;70.86
84382;BME280;74572;51.834;5.820;2024-01-11T06:14:56;103425.38;;;-6.20;70.45
84382;BME280;74572;51.834;5.820;2024-01-11T06:17:23;103425.69;;;-6.29;70.75
84382;BME280;74572;51.834;5.820;2024-01-11T06:19:49;103427.91;;;-6.30;70.84
84382;BME280;74572;51.834;5.820;2024-01-11T06:22:16;103429.97;;;-6.28;70.90
84382;BME280;74572;51.834;5.820;2024-01-11T06:24:43;103433.88;;;-6.24;71.08
84382;BME280;74572;51.834;5.820;2024-01-11T06:27:09;103430.47;;;-6.24;71.41
84382;BME280;74572;51.834;5.820;2024-01-11T06:29:35;103419.91;;;-6.23;71.18
84382;BME280;74572;51.834;5.820;2024-01-11T06:32:03;103437.50;;;-6.22;71.36
84382;BME280;74572;51.834;5.820;2024-01-11T06:34:28;103438.41;;;-6.21;71.06
84382;BME280;74572;51.834;5.820;2024-01-11T06:36:54;103456.41;;;-6.22;70.65
84382;BME280;74572;51.834;5.820;2024-01-11T06:39:21;103477.03;;;-6.28;71.32
84382;BME280;74572;51.834;5.820;2024-01-11T06:41:47;103500.00;;;-6.29;71.11
84382;BME280;74572;51.834;5.820;2024-01-11T06:44:12;103492.72;;;-6.33;71.34
84382;BME280;74572;51.834;5.820;2024-01-11T06:46:39;103499.34;;;-6.28;71.85
84382;BME280;74572;51.834;5.820;2024-01-11T06:49:10;103490.59;;;-6.25;71.65
84382;BME280;74572;51.834;5.820;2024-01-11T06:51:36;103482.00;;;-6.28;71.89
84382;BME280;74572;51.834;5.820;2024-01-11T06:54:04;103474.81;;;-6.26;72.06
84382;BME280;74572;51.834;5.820;2024-01-11T06:56:29;103470.09;;;-6.24;72.39
84382;BME280;74572;51.834;5.820;2024-01-11T06:58:55;103482.50;;;-6.24;71.99
84382;BME280;74572;51.834;5.820;2024-01-11T07:01:20;103479.66;;;-6.32;71.66
84382;BME280;74572;51.834;5.820;2024-01-11T07:03:48;103477.84;;;-6.33;72.23
84382;BME280;74572;51.834;5.820;2024-01-11T07:06:15;103477.84;;;-6.33;72.03
84382;BME280;74572;51.834;5.820;2024-01-11T07:08:41;103479.66;;;-6.32;72.25
84382;BME280;74572;51.834;5.820;2024-01-11T07:11:06;103489.56;;;-6.32;71.92
84382;BME280;74572;51.834;5.820;2024-01-11T07:13:33;103490.75;;;-6.30;72.36
84382;BME280;74572;51.834;5.820;2024-01-11T07:16:00;103485.78;;;-6.30;72.21
84382;BME280;74572;51.834;5.820;2024-01-11T07:18:28;103488.66;;;-6.32;71.89
84382;BME280;74572;51.834;5.820;2024-01-11T07:20:56;103502.22;;;-6.30;71.64
84382;BME280;74572;51.834;5.820;2024-01-11T07:23:22;103507.25;;;-6.24;72.25
84382;BME280;74572;51.834;5.820;2024-01-11T07:25:50;103510.41;;;-6.25;72.65
84382;BME280;74572;51.834;5.820;2024-01-11T07:28:15;103501.16;;;-6.27;72.27
84382;BME280;74572;51.834;5.820;2024-01-11T07:30:42;103499.16;;;-6.23;72.75
84382;BME280;74572;51.834;5.820;2024-01-11T07:33:08;103491.09;;;-6.22;72.37
84382;BME280;74572;51.834;5.820;2024-01-11T07:35:36;103483.41;;;-6.24;72.20
84382;BME280;74572;51.834;5.820;2024-01-11T07:38:02;103479.34;;;-6.23;72.56
84382;BME280;74572;51.834;5.820;2024-01-11T07:40:27;103479.19;;;-6.19;72.23
84382;BME280;74572;51.834;5.820;2024-01-11T07:42:54;103477.63;;;-6.19;72.04
84382;BME280;74572;51.834;5.820;2024-01-11T07:45:20;103463.69;;;-6.18;72.40
84382;BME280;74572;51.834;5.820;2024-01-11T07:47:46;103459.38;;;-6.19;71.90
84382;BME280;74572;51.834;5.820;2024-01-11T07:50:12;103467.63;;;-6.24;72.46
84382;BME280;74572;51.834;5.820;2024-01-11T07:52:39;103469.84;;;-6.26;72.45
84382;BME280;74572;51.834;5.820;2024-01-11T07:55:08;103473.41;;;-6.30;72.36
84382;BME280;74572;51.834;5.820;2024-01-11T07:57:37;103476.22;;;-6.22;72.57
84382;BME280;74572;51.834;5.820;2024-01-11T08:00:04;103469.44;;;-6.23;72.01
84382;BME280;74572;51.834;5.820;2024-01-11T08:02:34;103484.97;;;-6.09;71.99
84382;BME280;74572;51.834;5.820;2024-01-11T08:04:59;103469.84;;;-6.11;71.68
84382;BME280;74572;51.834;5.820;2024-01-11T08:07:28;103484.81;;;-6.05;71.94
84382;BME280;74572;51.834;5.820;2024-01-11T08:09:55;103468.78;;;-6.07;71.74
84382;BME280;74572;51.834;5.820;2024-01-11T08:12:23;103462.25;;;-6.07;72.16
84382;BME280;74572;51.834;5.820;2024-01-11T08:14:51;103473.41;;;-5.99;71.58
84382;BME280;74572;51.834;5.820;2024-01-11T08:17:18;103460.59;;;-5.97;71.99
84382;BME280;74572;51.834;5.820;2024-01-11T08:19:45;103461.31;;;-5.92;71.60
84382;BME280;74572;51.834;5.820;2024-01-11T08:22:10;103459.88;;;-5.80;71.93
84382;BME280;74572;51.834;5.820;2024-01-11T08:24:37;103470.50;;;-5.76;71.10
84382;BME280;74572;51.834;5.820;2024-01-11T08:27:03;103475.13;;;-5.68;71.16
84382;BME280;74572;51.834;5.820;2024-01-11T08:29:28;103496.22;;;-5.54;71.31
84382;BME280;74572;51.834;5.820;2024-01-11T08:31:54;103482.59;;;-5.47;70.79
84382;BME280;74572;51.834;5.820;2024-01-11T08:34:21;103478.16;;;-5.38;70.81
84382;BME280;74572;51.834;5.820;2024-01-11T08:36:48;103461.78;;;-5.32;71.20
84382;BME280;74572;51.834;5.820;2024-01-11T08:39:14;103472.69;;;-5.26;71.04
84382;BME280;74572;51.834;5.820;2024-01-11T08:41:41;103469.59;;;-5.19;70.95
84382;BME280;74572;51.834;5.820;2024-01-11T08:44:07;103471.19;;;-5.14;70.50
84382;BME280;74572;51.834;5.820;2024-01-11T08:46:35;103485.50;;;-5.08;70.61
84382;BME280;74572;51.834;5.820;2024-01-11T08:49:03;103495.03;;;-5.00;70.65
84382;BME280;74572;51.834;5.820;2024-01-11T08:51:29;103497.34;;;-4.96;71.19
84382;BME280;74572;51.834;5.820;2024-01-11T08:53:56;103506.41;;;-4.91;70.24
84382;BME280;74572;51.834;5.820;2024-01-11T08:56:22;103492.63;;;-4.94;70.36
84382;BME280;74572;51.834;5.820;2024-01-11T08:58:48;103514.16;;;-4.83;70.96
84382;BME280;74572;51.834;5.820;2024-01-11T09:01:15;103515.31;;;-4.81;70.49
84382;BME280;74572;51.834;5.820;2024-01-11T09:03:42;103513.53;;;-4.77;70.50
84382;BME280;74572;51.834;5.820;2024-01-11T09:06:10;103522.19;;;-4.69;70.56
84382;BME280;74572;51.834;5.820;2024-01-11T09:08:36;103513.59;;;-4.71;70.50
84382;BME280;74572;51.834;5.820;2024-01-11T09:11:03;103529.72;;;-4.58;70.26
84382;BME280;74572;51.834;5.820;2024-01-11T09:13:29;103531.31;;;-4.59;70.70
84382;BME280;74572;51.834;5.820;2024-01-11T09:15:55;103534.09;;;-4.52;70.43
84382;BME280;74572;51.834;5.820;2024-01-11T09:18:21;103525.53;;;-4.48;70.52
84382;BME280;74572;51.834;5.820;2024-01-11T09:20:51;103539.13;;;-4.40;69.53
84382;BME280;74572;51.834;5.820;2024-01-11T09:23:18;103541.00;;;-4.34;70.15
84382;BME280;74572;51.834;5.820;2024-01-11T09:25:44;103538.81;;;-4.27;70.00
84382;BME280;74572;51.834;5.820;2024-01-11T09:28:11;103534.34;;;-4.18;70.12
84382;BME280;74572;51.834;5.820;2024-01-11T09:30:37;103534.63;;;-4.11;69.56
84382;BME280;74572;51.834;5.820;2024-01-11T09:33:05;103542.59;;;-4.02;69.91
84382;BME280;74572;51.834;5.820;2024-01-11T09:35:31;103539.03;;;-3.93;69.41
84382;BME280;74572;51.834;5.820;2024-01-11T09:37:56;103534.53;;;-2.37;67.38
84382;BME280;74572;51.834;5.820;2024-01-11T09:40:23;103517.13;;;1.54;61.45
84382;BME280;74572;51.834;5.820;2024-01-11T09:42:48;103507.84;;;3.75;58.27
84382;BME280;74572;51.834;5.820;2024-01-11T09:45:16;103515.84;;;5.03;57.57
84382;BME280;74572;51.834;5.820;2024-01-11T09:47:44;103525.56;;;5.92;56.23
84382;BME280;74572;51.834;5.820;2024-01-11T09:50:11;103532.59;;;6.39;56.01
84382;BME280;74572;51.834;5.820;2024-01-11T09:52:47;103528.44;;;5.74;58.15
84382;BME280;74572;51.834;5.820;2024-01-11T09:55:14;103540.88;;;4.87;58.20
84382;BME280;74572;51.834;5.820;2024-01-11T09:57:44;103537.78;;;4.82;58.05
84382;BME280;74572;51.834;5.820;2024-01-11T10:00:16;103546.69;;;5.00;54.42
84382;BME280;74572;51.834;5.820;2024-01-11T10:02:42;103551.53;;;5.13;53.84
84382;BME280;74572;51.834;5.820;2024-01-11T10:05:11;103551.75;;;5.36;53.61
84382;BME280;74572;51.834;5.820;2024-01-11T10:07:39;103540.72;;;5.42;52.34
84382;BME280;74572;51.834;5.820;2024-01-11T10:10:05;103551.50;;;4.77;53.02
84382;BME280;74572;51.834;5.820;2024-01-11T10:12:34;103555.81;;;3.42;54.55
84382;BME280;74572;51.834;5.820;2024-01-11T10:15:06;103557.69;;;3.77;53.59
84382;BME280;74572;51.834;5.820;2024-01-11T10:17:46;103558.97;;;3.81;52.49
84382;BME280;74572;51.834;5.820;2024-01-11T10:20:13;103559.03;;;3.95;51.31
84382;BME280;74572;51.834;5.820;2024-01-11T10:22:42;103560.03;;;3.56;52.35
84382;BME280;74572;51.834;5.820;2024-01-11T10:25:09;103551.16;;;3.45;52.17
84382;BME280;74572;51.834;5.820;2024-01-11T10:27:37;103548.69;;;2.93;53.09
84382;BME280;74572;51.834;5.820;2024-01-11T10:30:05;103557.19;;;2.36;52.72
84382;BME280;74572;51.834;5.820;2024-01-11T10:32:33;103558.16;;;1.55;53.76
84382;BME280;74572;51.834;5.820;2024-01-11T10:35:00;103549.78;;;0.74;54.94
84382;BME280;74572;51.834;5.820;2024-01-11T10:37:30;103551.38;;;0.92;54.34
84382;BME280;74572;51.834;5.820;2024-01-11T10:40:04;103555.28;;;1.52;53.13
84382;BME280;74572;51.834;5.820;2024-01-11T10:42:35;103561.75;;;1.88;52.29
84382;BME280;74572;51.834;5.820;2024-01-11T10:45:03;103561.22;;;2.16;51.12
84382;BME280;74572;51.834;5.820;2024-01-11T10:47:33;103564.50;;;1.15;52.85
84382;BME280;74572;51.834;5.820;2024-01-11T10:50:01;103561.09;;;0.78;53.98
84382;BME280;74572;51.834;5.820;2024-01-11T10:52:30;103558.22;;;0.56;54.09
84382;BME280;74572;51.834;5.820;2024-01-11T10:54:58;103553.78;;;0.43;54.47
84382;BME280;74572;51.834;5.820;2024-01-11T10:57:27;103568.59;;;0.41;55.02
84382;BME280;74572;51.834;5.820;2024-01-11T10:59:53;103552.19;;;0.43;55.47
84382;BME280;74572;51.834;5.820;2024-01-11T11:02:22;103569.81;;;0.38;56.01
84382;BME280;74572;51.834;5.820;2024-01-11T11:04:53;103570.81;;;0.27;56.21
84382;BME280;74572;51.834;5.820;2024-01-11T11:07:20;103568.56;;;0.23;55.82
84382;BME280;74572;51.834;5.820;2024-01-11T11:09:49;103570.03;;;0.15;55.99
84382;BME280;74572;51.834;5.820;2024-01-11T11:12:16;103585.09;;;0.10;56.56
84382;BME280;74572;51.834;5.820;2024-01-11T11:14:44;103580.81;;;0.03;56.04
84382;BME280;74572;51.834;5.820;2024-01-11T11:17:14;103571.66;;;-0.15;56.39
84382;BME280;74572;51.834;5.820;2024-01-11T11:19:42;103575.13;;;-0.20;56.17
84382;BME280;74572;51.834;5.820;2024-01-11T11:22:07;103581.78;;;-0.26;56.34
84382;BME280;74572;51.834;5.820;2024-01-11T11:24:36;103585.91;;;-0.32;56.38
84382;BME280;74572;51.834;5.820;2024-01-11T11:27:01;103588.66;;;-0.36;56.75
84382;BME280;74572;51.834;5.820;2024-01-11T11:29:30;103598.28;;;-0.45;57.50
84382;BME280;74572;51.834;5.820;2024-01-11T11:31:55;103592.59;;;-0.44;58.04
84382;BME280;74572;51.834;5.820;2024-01-11T11:34:44;103605.47;;;-0.35;58.27
84382;BME280;74572;51.834;5.820;2024-01-11T11:37:11;103600.47;;;-0.35;57.56
84382;BME280;74572;51.834;5.820;2024-01-11T11:39:41;103595.91;;;-0.32;57.40
84382;BME280;74572;51.834;5.820;2024-01-11T11:42:09;103590.94;;;-0.38;58.06
84382;BME280;74572;51.834;5.820;2024-01-11T11:44:35;103591.84;;;-0.37;58.44
84382;BME280;74572;51.834;5.820;2024-01-11T11:47:36;103584.84;;;-0.40;59.93
84382;BME280;74572;51.834;5.820;2024-01-11T11:50:10;103589.88;;;-0.45;59.46
84382;BME280;74572;51.834;5.820;2024-01-11T11:52:38;103581.69;;;-0.44;60.03
84382;BME280;74572;51.834;5.820;2024-01-11T11:55:05;103573.66;;;-0.36;60.05
84382;BME280;74572;51.834;5.820;2024-01-11T11:57:30;103569.16;;;-0.15;61.00
84382;BME280;74572;51.834;5.820;2024-01-11T11:59:58;103566.84;;;-0.08;62.15
84382;BME280;74572;51.834;5.820;2024-01-11T12:02:25;103564.06;;;-0.27;63.10
84382;BME280;74572;51.834;5.820;2024-01-11T12:04:52;103576.91;;;-0.43;65.38
84382;BME280;74572;51.834;5.820;2024-01-11T12:07:19;103564.47;;;-0.54;65.70
84382;BME280;74572;51.834;5.820;2024-01-11T12:09:46;103567.94;;;-0.59;65.61
84382;BME280;74572;51.834;5.820;2024-01-11T12:12:12;103566.16;;;-0.65;66.95
84382;BME280;74572;51.834;5.820;2024-01-11T12:14:38;103559.84;;;-0.75;66.71
84382;BME280;74572;51.834;5.820;2024-01-11T12:17:03;103555.34;;;-0.77;67.68
84382;BME280;74572;51.834;5.820;2024-01-11T12:19:29;103550.53;;;-0.76;68.14
84382;BME280;74572;51.834;5.820;2024-01-11T12:21:54;103548.47;;;-0.73;67.60
84382;BME280;74572;51.834;5.820;2024-01-11T12:24:20;103535.13;;;-0.79;68.24
84382;BME280;74572;51.834;5.820;2024-01-11T12:26:49;103531.75;;;-0.85;68.33
84382;BME280;74572;51.834;5.820;2024-01-11T12:29:19;103537.44;;;-0.86;68.36
84382;BME280;74572;51.834;5.820;2024-01-11T12:31:46;103532.63;;;-0.79;68.40
84382;BME280;74572;51.834;5.820;2024-01-11T12:34:14;103531.66;;;-0.74;68.70
84382;BME280;74572;51.834;5.820;2024-01-11T12:36:41;103535.25;;;-0.66;68.64
84382;BME280;74572;51.834;5.820;2024-01-11T12:39:11;103542.25;;;-0.58;68.02
84382;BME280;74572;51.834;5.820;2024-01-11T12:41:39;103540.81;;;-0.50;68.60
84382;BME280;74572;51.834;5.820;2024-01-11T12:44:06;103531.94;;;-0.48;69.21
84382;BME280;74572;51.834;5.820;2024-01-11T12:46:31;103553.25;;;-0.39;69.04
84382;BME280;74572;51.834;5.820;2024-01-11T12:48:58;103540.03;;;-0.38;68.70